sensor_id;sensor_type;location;lat;lon;timestamp;P1;durP1;ratioP1;P2;durP2;ratioP2
38615;SDS011;24370;51.986;4.666;2023-03-01T00:00:11;30.33;;;16.73;;
38615;SDS011;24370;51.986;4.666;2023-03-01T00:02:36;31.57;;;14.97;;
38615;SDS011;24370;51.986;4.666;2023-03-01T00:05:02;31.63;;;16.67;;
38615;SDS011;24370;51.986;4.666;2023-03-01T00:07:28;32.47;;;16.00;;
38615;SDS011;24370;51.986;4.666;2023-03-01T00:09:53;32.63;;;17.40;;
38615;SDS011;24370;51.986;4.666;2023-03-01T00:12:19;28.87;;;16.47;;
38615;SDS011;24370;51.986;4.666;2023-03-01T00:14:45;29.17;;;16.57;;
38615;SDS011;24370;51.986;4.666;2023-03-01T00:17:10;30.40;;;16.73;;
38615;SDS011;24370;51.986;4.666;2023-03-01T00:19:36;32.50;;;18.20;;
38615;SDS011;24370;51.986;4.666;2023-03-01T00:22:01;31.70;;;16.97;;
38615;SDS011;24370;51.986;4.666;2023-03-01T00:24:27;37.93;;;18.30;;
38615;SDS011;24370;51.986;4.666;2023-03-01T00:26:53;30.83;;;17.10;;
38615;SDS011;24370;51.986;4.666;2023-03-01T00:29:20;31.80;;;17.50;;
38615;SDS011;24370;51.986;4.666;2023-03-01T00:31:46;32.80;;;17.23;;
38615;SDS011;24370;51.986;4.666;2023-03-01T00:34:12;35.80;;;19.17;;
38615;SDS011;24370;51.986;4.666;2023-03-01T00:36:37;35.73;;;18.50;;
38615;SDS011;24370;51.986;4.666;2023-03-01T00:39:03;34.13;;;18.20;;
38615;SDS011;24370;51.986;4.666;2023-03-01T00:41:31;34.70;;;17.00;;
38615;SDS011;24370;51.986;4.666;2023-03-01T00:43:56;34.83;;;18.57;;
38615;SDS011;24370;51.986;4.666;2023-03-01T00:46:23;31.33;;;18.57;;
38615;SDS011;24370;51.986;4.666;2023-03-01T00:48:51;39.03;;;19.37;;
38615;SDS011;24370;51.986;4.666;2023-03-01T00:51:17;37.33;;;18.13;;
38615;SDS011;24370;51.986;4.666;2023-03-01T00:53:46;38.37;;;19.13;;
38615;SDS011;24370;51.986;4.666;2023-03-01T00:56:12;38.67;;;20.00;;
38615;SDS011;24370;51.986;4.666;2023-03-01T00:58:39;39.47;;;19.53;;
38615;SDS011;24370;51.986;4.666;2023-03-01T01:01:08;37.17;;;20.47;;
38615;SDS011;24370;51.986;4.666;2023-03-01T01:03:46;42.73;;;20.23;;
38615;SDS011;24370;51.986;4.666;2023-03-01T01:06:23;41.53;;;21.27;;
38615;SDS011;24370;51.986;4.666;2023-03-01T01:08:54;44.03;;;22.17;;
38615;SDS011;24370;51.986;4.666;2023-03-01T01:11:20;43.80;;;24.00;;
38615;SDS011;24370;51.986;4.666;2023-03-01T01:13:47;45.37;;;25.37;;
38615;SDS011;24370;51.986;4.666;2023-03-01T01:16:16;46.67;;;25.00;;
38615;SDS011;24370;51.986;4.666;2023-03-01T01:18:44;50.73;;;25.53;;
38615;SDS011;24370;51.986;4.666;2023-03-01T01:21:11;48.57;;;25.43;;
38615;SDS011;24370;51.986;4.666;2023-03-01T01:23:39;49.33;;;26.37;;
38615;SDS011;24370;51.986;4.666;2023-03-01T01:26:07;51.80;;;27.93;;
38615;SDS011;24370;51.986;4.666;2023-03-01T01:28:34;50.23;;;26.37;;
38615;SDS011;24370;51.986;4.666;2023-03-01T01:31:01;48.77;;;27.27;;
38615;SDS011;24370;51.986;4.666;2023-03-01T01:33:27;52.50;;;28.30;;
38615;SDS011;24370;51.986;4.666;2023-03-01T01:35:53;48.10;;;27.17;;
38615;SDS011;24370;51.986;4.666;2023-03-01T01:38:18;51.57;;;28.80;;
38615;SDS011;24370;51.986;4.666;2023-03-01T01:40:44;54.90;;;28.90;;
38615;SDS011;24370;51.986;4.666;2023-03-01T01:43:24;50.63;;;27.57;;
38615;SDS011;24370;51.986;4.666;2023-03-01T01:46:06;55.23;;;28.93;;
38615;SDS011;24370;51.986;4.666;2023-03-01T01:48:45;47.28;;;27.65;;
38615;SDS011;24370;51.986;4.666;2023-03-01T01:51:14;50.53;;;27.23;;
38615;SDS011;24370;51.986;4.666;2023-03-01T01:53:52;54.67;;;30.57;;
38615;SDS011;24370;51.986;4.666;2023-03-01T01:56:21;56.23;;;29.93;;
38615;SDS011;24370;51.986;4.666;2023-03-01T01:58:49;58.07;;;30.30;;
38615;SDS011;24370;51.986;4.666;2023-03-01T02:01:15;58.53;;;30.97;;
38615;SDS011;24370;51.986;4.666;2023-03-01T02:03:42;61.33;;;31.43;;
38615;SDS011;24370;51.986;4.666;2023-03-01T02:08:35;61.73;;;33.57;;
38615;SDS011;24370;51.986;4.666;2023-03-01T02:11:03;58.77;;;30.97;;
38615;SDS011;24370;51.986;4.666;2023-03-01T02:13:31;60.17;;;31.57;;
38615;SDS011;24370;51.986;4.666;2023-03-01T02:15:57;59.63;;;30.70;;
38615;SDS011;24370;51.986;4.666;2023-03-01T02:18:23;65.27;;;31.40;;
38615;SDS011;24370;51.986;4.666;2023-03-01T02:23:33;57.20;;;29.30;;
38615;SDS011;24370;51.986;4.666;2023-03-01T02:26:05;60.97;;;31.53;;
38615;SDS011;24370;51.986;4.666;2023-03-01T02:28:36;60.37;;;32.30;;
38615;SDS011;24370;51.986;4.666;2023-03-01T02:31:07;55.97;;;29.37;;
38615;SDS011;24370;51.986;4.666;2023-03-01T02:33:54;63.80;;;32.40;;
38615;SDS011;24370;51.986;4.666;2023-03-01T02:36:22;65.30;;;31.60;;
38615;SDS011;24370;51.986;4.666;2023-03-01T02:38:51;65.03;;;31.97;;
38615;SDS011;24370;51.986;4.666;2023-03-01T02:41:21;58.33;;;30.20;;
38615;SDS011;24370;51.986;4.666;2023-03-01T02:43:48;55.90;;;30.23;;
38615;SDS011;24370;51.986;4.666;2023-03-01T02:46:18;61.33;;;31.20;;
38615;SDS011;24370;51.986;4.666;2023-03-01T02:48:50;60.28;;;31.65;;
38615;SDS011;24370;51.986;4.666;2023-03-01T02:54:25;64.13;;;31.77;;
38615;SDS011;24370;51.986;4.666;2023-03-01T02:56:55;55.40;;;30.03;;
38615;SDS011;24370;51.986;4.666;2023-03-01T02:59:22;62.17;;;31.07;;
38615;SDS011;24370;51.986;4.666;2023-03-01T03:01:52;60.10;;;29.20;;
38615;SDS011;24370;51.986;4.666;2023-03-01T03:04:17;56.60;;;28.77;;
38615;SDS011;24370;51.986;4.666;2023-03-01T03:06:44;58.60;;;29.47;;
38615;SDS011;24370;51.986;4.666;2023-03-01T03:09:11;60.37;;;31.57;;
38615;SDS011;24370;51.986;4.666;2023-03-01T03:11:37;59.83;;;28.33;;
38615;SDS011;24370;51.986;4.666;2023-03-01T03:14:04;55.70;;;28.93;;
38615;SDS011;24370;51.986;4.666;2023-03-01T03:16:30;58.87;;;29.53;;
38615;SDS011;24370;51.986;4.666;2023-03-01T03:18:56;54.83;;;27.57;;
38615;SDS011;24370;51.986;4.666;2023-03-01T03:21:30;56.50;;;28.33;;
38615;SDS011;24370;51.986;4.666;2023-03-01T03:23:56;56.83;;;28.37;;
38615;SDS011;24370;51.986;4.666;2023-03-01T03:26:22;50.77;;;27.90;;
38615;SDS011;24370;51.986;4.666;2023-03-01T03:28:48;59.23;;;29.47;;
38615;SDS011;24370;51.986;4.666;2023-03-01T03:31:13;59.20;;;27.93;;
38615;SDS011;24370;51.986;4.666;2023-03-01T03:33:38;58.33;;;28.77;;
38615;SDS011;24370;51.986;4.666;2023-03-01T03:36:04;55.43;;;28.50;;
38615;SDS011;24370;51.986;4.666;2023-03-01T03:38:30;61.47;;;29.67;;
38615;SDS011;24370;51.986;4.666;2023-03-01T03:41:02;55.43;;;28.67;;
38615;SDS011;24370;51.986;4.666;2023-03-01T03:43:30;59.67;;;27.87;;
38615;SDS011;24370;51.986;4.666;2023-03-01T03:45:57;55.67;;;28.63;;
38615;SDS011;24370;51.986;4.666;2023-03-01T03:48:23;60.37;;;29.20;;
38615;SDS011;24370;51.986;4.666;2023-03-01T03:50:50;54.30;;;28.10;;
38615;SDS011;24370;51.986;4.666;2023-03-01T03:53:17;55.10;;;27.77;;
38615;SDS011;24370;51.986;4.666;2023-03-01T03:55:43;56.47;;;27.13;;
38615;SDS011;24370;51.986;4.666;2023-03-01T03:58:09;56.33;;;28.90;;
38615;SDS011;24370;51.986;4.666;2023-03-01T04:00:37;56.53;;;27.60;;
38615;SDS011;24370;51.986;4.666;2023-03-01T04:03:07;53.13;;;27.90;;
38615;SDS011;24370;51.986;4.666;2023-03-01T04:05:33;53.30;;;26.93;;
38615;SDS011;24370;51.986;4.666;2023-03-01T04:08:00;49.13;;;27.20;;
38615;SDS011;24370;51.986;4.666;2023-03-01T04:10:27;54.80;;;27.00;;
38615;SDS011;24370;51.986;4.666;2023-03-01T04:12:53;52.17;;;28.67;;
38615;SDS011;24370;51.986;4.666;2023-03-01T04:15:21;47.30;;;25.03;;
38615;SDS011;24370;51.986;4.666;2023-03-01T04:17:49;53.03;;;26.37;;
38615;SDS011;24370;51.986;4.666;2023-03-01T04:20:16;54.23;;;28.70;;
38615;SDS011;24370;51.986;4.666;2023-03-01T04:22:50;54.90;;;26.77;;
38615;SDS011;24370;51.986;4.666;2023-03-01T04:25:17;49.63;;;26.50;;
38615;SDS011;24370;51.986;4.666;2023-03-01T04:27:43;56.37;;;26.70;;
38615;SDS011;24370;51.986;4.666;2023-03-01T04:30:08;48.03;;;25.60;;
38615;SDS011;24370;51.986;4.666;2023-03-01T04:32:34;71.33;;;28.40;;
38615;SDS011;24370;51.986;4.666;2023-03-01T04:35:00;58.87;;;25.27;;
38615;SDS011;24370;51.986;4.666;2023-03-01T04:37:26;50.70;;;25.70;;
38615;SDS011;24370;51.986;4.666;2023-03-01T04:39:52;53.80;;;26.60;;
38615;SDS011;24370;51.986;4.666;2023-03-01T04:42:18;54.90;;;27.50;;
38615;SDS011;24370;51.986;4.666;2023-03-01T04:44:43;65.70;;;26.27;;
38615;SDS011;24370;51.986;4.666;2023-03-01T04:47:09;50.77;;;25.93;;
38615;SDS011;24370;51.986;4.666;2023-03-01T04:49:35;43.97;;;23.27;;
38615;SDS011;24370;51.986;4.666;2023-03-01T04:52:00;43.20;;;22.43;;
38615;SDS011;24370;51.986;4.666;2023-03-01T04:54:32;40.50;;;21.87;;
38615;SDS011;24370;51.986;4.666;2023-03-01T04:56:59;43.77;;;22.57;;
38615;SDS011;24370;51.986;4.666;2023-03-01T04:59:27;41.63;;;22.30;;
38615;SDS011;24370;51.986;4.666;2023-03-01T05:01:52;41.57;;;23.10;;
38615;SDS011;24370;51.986;4.666;2023-03-01T05:04:20;43.27;;;23.83;;
38615;SDS011;24370;51.986;4.666;2023-03-01T05:06:47;42.50;;;23.63;;
38615;SDS011;24370;51.986;4.666;2023-03-01T05:09:12;43.60;;;23.57;;
38615;SDS011;24370;51.986;4.666;2023-03-01T05:11:37;41.50;;;22.13;;
38615;SDS011;24370;51.986;4.666;2023-03-01T05:14:03;42.83;;;24.80;;
38615;SDS011;24370;51.986;4.666;2023-03-01T05:16:32;38.97;;;21.80;;
38615;SDS011;24370;51.986;4.666;2023-03-01T05:18:58;42.57;;;23.50;;
38615;SDS011;24370;51.986;4.666;2023-03-01T05:21:24;42.70;;;22.63;;
38615;SDS011;24370;51.986;4.666;2023-03-01T05:23:50;41.40;;;23.07;;
38615;SDS011;24370;51.986;4.666;2023-03-01T05:26:19;45.53;;;23.77;;
38615;SDS011;24370;51.986;4.666;2023-03-01T05:28:46;39.43;;;22.33;;
38615;SDS011;24370;51.986;4.666;2023-03-01T05:31:12;44.53;;;22.97;;
38615;SDS011;24370;51.986;4.666;2023-03-01T05:33:38;43.00;;;23.70;;
38615;SDS011;24370;51.986;4.666;2023-03-01T05:36:05;41.63;;;22.97;;
38615;SDS011;24370;51.986;4.666;2023-03-01T05:38:32;44.33;;;23.70;;
38615;SDS011;24370;51.986;4.666;2023-03-01T05:40:57;44.93;;;24.63;;
38615;SDS011;24370;51.986;4.666;2023-03-01T05:43:23;42.73;;;23.57;;
38615;SDS011;24370;51.986;4.666;2023-03-01T05:45:48;42.20;;;23.07;;
38615;SDS011;24370;51.986;4.666;2023-03-01T05:48:14;39.07;;;22.43;;
38615;SDS011;24370;51.986;4.666;2023-03-01T05:50:43;39.13;;;22.70;;
38615;SDS011;24370;51.986;4.666;2023-03-01T05:53:14;38.00;;;21.33;;
38615;SDS011;24370;51.986;4.666;2023-03-01T05:55:41;37.30;;;23.10;;
38615;SDS011;24370;51.986;4.666;2023-03-01T05:58:09;33.37;;;20.33;;
38615;SDS011;24370;51.986;4.666;2023-03-01T06:00:38;35.30;;;21.73;;
38615;SDS011;24370;51.986;4.666;2023-03-01T06:03:04;39.67;;;23.07;;
38615;SDS011;24370;51.986;4.666;2023-03-01T06:05:30;36.97;;;21.90;;
38615;SDS011;24370;51.986;4.666;2023-03-01T06:07:58;36.87;;;21.23;;
38615;SDS011;24370;51.986;4.666;2023-03-01T06:10:25;40.47;;;22.47;;
38615;SDS011;24370;51.986;4.666;2023-03-01T06:12:50;39.27;;;22.37;;
38615;SDS011;24370;51.986;4.666;2023-03-01T06:15:16;34.80;;;20.40;;
38615;SDS011;24370;51.986;4.666;2023-03-01T06:17:42;35.97;;;21.37;;
38615;SDS011;24370;51.986;4.666;2023-03-01T06:20:13;36.37;;;19.80;;
38615;SDS011;24370;51.986;4.666;2023-03-01T06:22:41;34.25;;;20.40;;
38615;SDS011;24370;51.986;4.666;2023-03-01T06:25:07;32.90;;;20.07;;
38615;SDS011;24370;51.986;4.666;2023-03-01T06:27:33;30.30;;;18.37;;
38615;SDS011;24370;51.986;4.666;2023-03-01T06:29:58;39.30;;;20.37;;
38615;SDS011;24370;51.986;4.666;2023-03-01T06:32:24;34.67;;;20.30;;
38615;SDS011;24370;51.986;4.666;2023-03-01T06:34:49;35.10;;;19.20;;
38615;SDS011;24370;51.986;4.666;2023-03-01T06:37:15;34.43;;;18.63;;
38615;SDS011;24370;51.986;4.666;2023-03-01T06:39:40;36.93;;;21.07;;
38615;SDS011;24370;51.986;4.666;2023-03-01T06:42:06;35.53;;;18.80;;
38615;SDS011;24370;51.986;4.666;2023-03-01T06:44:32;33.53;;;19.40;;
38615;SDS011;24370;51.986;4.666;2023-03-01T06:46:58;36.97;;;20.10;;
38615;SDS011;24370;51.986;4.666;2023-03-01T06:49:24;36.57;;;20.13;;
38615;SDS011;24370;51.986;4.666;2023-03-01T06:51:49;37.47;;;21.23;;
38615;SDS011;24370;51.986;4.666;2023-03-01T06:54:15;34.87;;;20.73;;
38615;SDS011;24370;51.986;4.666;2023-03-01T06:56:42;38.87;;;21.50;;
38615;SDS011;24370;51.986;4.666;2023-03-01T06:59:08;38.67;;;22.60;;
38615;SDS011;24370;51.986;4.666;2023-03-01T07:01:33;43.53;;;20.63;;
38615;SDS011;24370;51.986;4.666;2023-03-01T07:03:58;36.43;;;21.90;;
38615;SDS011;24370;51.986;4.666;2023-03-01T07:06:24;35.77;;;20.00;;
38615;SDS011;24370;51.986;4.666;2023-03-01T07:08:49;31.53;;;18.70;;
38615;SDS011;24370;51.986;4.666;2023-03-01T07:11:15;42.17;;;22.20;;
38615;SDS011;24370;51.986;4.666;2023-03-01T07:13:41;39.97;;;22.00;;
38615;SDS011;24370;51.986;4.666;2023-03-01T07:16:07;39.17;;;22.20;;
38615;SDS011;24370;51.986;4.666;2023-03-01T07:18:32;43.23;;;21.77;;
38615;SDS011;24370;51.986;4.666;2023-03-01T07:20:58;32.80;;;19.23;;
38615;SDS011;24370;51.986;4.666;2023-03-01T07:23:23;39.77;;;21.23;;
38615;SDS011;24370;51.986;4.666;2023-03-01T07:25:52;42.60;;;21.73;;
38615;SDS011;24370;51.986;4.666;2023-03-01T07:28:19;42.43;;;22.03;;
38615;SDS011;24370;51.986;4.666;2023-03-01T07:30:44;38.40;;;19.43;;
38615;SDS011;24370;51.986;4.666;2023-03-01T07:33:09;47.67;;;23.20;;
38615;SDS011;24370;51.986;4.666;2023-03-01T07:35:35;46.07;;;23.43;;
38615;SDS011;24370;51.986;4.666;2023-03-01T07:38:00;41.40;;;21.27;;
38615;SDS011;24370;51.986;4.666;2023-03-01T07:40:26;41.60;;;21.23;;
38615;SDS011;24370;51.986;4.666;2023-03-01T07:42:57;41.40;;;22.47;;
38615;SDS011;24370;51.986;4.666;2023-03-01T07:45:27;47.25;;;26.02;;
38615;SDS011;24370;51.986;4.666;2023-03-01T07:47:53;45.70;;;25.33;;
38615;SDS011;24370;51.986;4.666;2023-03-01T07:50:19;46.00;;;24.90;;
38615;SDS011;24370;51.986;4.666;2023-03-01T07:52:45;45.87;;;24.13;;
38615;SDS011;24370;51.986;4.666;2023-03-01T07:55:11;43.30;;;23.37;;
38615;SDS011;24370;51.986;4.666;2023-03-01T07:57:37;41.40;;;22.10;;
38615;SDS011;24370;51.986;4.666;2023-03-01T08:00:03;46.43;;;22.77;;
38615;SDS011;24370;51.986;4.666;2023-03-01T08:02:29;47.83;;;23.93;;
38615;SDS011;24370;51.986;4.666;2023-03-01T08:04:54;44.73;;;23.00;;
38615;SDS011;24370;51.986;4.666;2023-03-01T08:07:20;42.07;;;22.23;;
38615;SDS011;24370;51.986;4.666;2023-03-01T08:09:45;42.67;;;22.87;;
38615;SDS011;24370;51.986;4.666;2023-03-01T08:12:11;40.00;;;20.77;;
38615;SDS011;24370;51.986;4.666;2023-03-01T08:14:36;39.23;;;19.70;;
38615;SDS011;24370;51.986;4.666;2023-03-01T08:17:02;35.20;;;18.60;;
38615;SDS011;24370;51.986;4.666;2023-03-01T08:19:28;38.53;;;18.90;;
38615;SDS011;24370;51.986;4.666;2023-03-01T08:21:54;34.33;;;17.40;;
38615;SDS011;24370;51.986;4.666;2023-03-01T08:24:19;30.57;;;16.57;;
38615;SDS011;24370;51.986;4.666;2023-03-01T08:26:45;33.13;;;17.53;;
38615;SDS011;24370;51.986;4.666;2023-03-01T08:29:11;23.17;;;12.43;;
38615;SDS011;24370;51.986;4.666;2023-03-01T08:31:37;22.47;;;9.93;;
38615;SDS011;24370;51.986;4.666;2023-03-01T08:34:05;16.23;;;9.40;;
38615;SDS011;24370;51.986;4.666;2023-03-01T08:36:37;22.33;;;10.25;;
38615;SDS011;24370;51.986;4.666;2023-03-01T08:39:07;20.07;;;10.13;;
38615;SDS011;24370;51.986;4.666;2023-03-01T08:41:34;16.83;;;10.27;;
38615;SDS011;24370;51.986;4.666;2023-03-01T08:43:59;15.43;;;8.73;;
38615;SDS011;24370;51.986;4.666;2023-03-01T08:46:30;13.93;;;9.07;;
38615;SDS011;24370;51.986;4.666;2023-03-01T08:48:57;10.55;;;6.63;;
38615;SDS011;24370;51.986;4.666;2023-03-01T08:51:23;13.07;;;8.43;;
38615;SDS011;24370;51.986;4.666;2023-03-01T08:53:50;14.80;;;8.90;;
38615;SDS011;24370;51.986;4.666;2023-03-01T08:56:16;16.00;;;9.23;;
38615;SDS011;24370;51.986;4.666;2023-03-01T08:58:46;15.80;;;8.00;;
38615;SDS011;24370;51.986;4.666;2023-03-01T09:01:14;17.20;;;9.17;;
38615;SDS011;24370;51.986;4.666;2023-03-01T09:03:41;14.50;;;8.77;;
38615;SDS011;24370;51.986;4.666;2023-03-01T09:06:08;17.30;;;9.13;;
38615;SDS011;24370;51.986;4.666;2023-03-01T09:08:34;16.80;;;9.23;;
38615;SDS011;24370;51.986;4.666;2023-03-01T09:11:07;15.13;;;8.90;;
38615;SDS011;24370;51.986;4.666;2023-03-01T09:13:35;14.67;;;8.47;;
38615;SDS011;24370;51.986;4.666;2023-03-01T09:16:01;15.87;;;8.60;;
38615;SDS011;24370;51.986;4.666;2023-03-01T09:18:29;15.70;;;9.30;;
38615;SDS011;24370;51.986;4.666;2023-03-01T09:21:01;16.10;;;7.80;;
38615;SDS011;24370;51.986;4.666;2023-03-01T09:23:36;10.43;;;6.57;;
38615;SDS011;24370;51.986;4.666;2023-03-01T09:26:04;17.17;;;7.23;;
38615;SDS011;24370;51.986;4.666;2023-03-01T09:28:30;16.07;;;7.73;;
38615;SDS011;24370;51.986;4.666;2023-03-01T09:31:00;12.87;;;7.73;;
38615;SDS011;24370;51.986;4.666;2023-03-01T09:33:27;10.63;;;6.67;;
38615;SDS011;24370;51.986;4.666;2023-03-01T09:36:00;9.60;;;6.20;;
38615;SDS011;24370;51.986;4.666;2023-03-01T09:38:27;10.40;;;6.10;;
38615;SDS011;24370;51.986;4.666;2023-03-01T09:40:53;9.13;;;6.17;;
38615;SDS011;24370;51.986;4.666;2023-03-01T09:45:44;8.27;;;5.43;;
38615;SDS011;24370;51.986;4.666;2023-03-01T09:48:22;9.53;;;5.60;;
38615;SDS011;24370;51.986;4.666;2023-03-01T09:50:51;9.70;;;5.27;;
38615;SDS011;24370;51.986;4.666;2023-03-01T09:53:21;9.17;;;5.23;;
38615;SDS011;24370;51.986;4.666;2023-03-01T10:01:21;9.87;;;5.93;;
38615;SDS011;24370;51.986;4.666;2023-03-01T10:09:35;10.82;;;6.28;;
38615;SDS011;24370;51.986;4.666;2023-03-01T10:12:02;10.85;;;5.00;;
38615;SDS011;24370;51.986;4.666;2023-03-01T10:14:44;7.25;;;4.85;;
38615;SDS011;24370;51.986;4.666;2023-03-01T10:17:36;8.25;;;5.57;;
38615;SDS011;24370;51.986;4.666;2023-03-01T10:22:40;8.38;;;5.53;;
38615;SDS011;24370;51.986;4.666;2023-03-01T10:25:06;11.53;;;6.53;;
38615;SDS011;24370;51.986;4.666;2023-03-01T10:27:44;8.68;;;6.35;;
38615;SDS011;24370;51.986;4.666;2023-03-01T10:30:22;11.83;;;6.47;;
38615;SDS011;24370;51.986;4.666;2023-03-01T10:32:52;11.43;;;6.57;;
38615;SDS011;24370;51.986;4.666;2023-03-01T10:35:19;14.37;;;7.23;;
38615;SDS011;24370;51.986;4.666;2023-03-01T10:37:56;10.47;;;6.47;;
38615;SDS011;24370;51.986;4.666;2023-03-01T10:40:30;10.70;;;6.47;;
38615;SDS011;24370;51.986;4.666;2023-03-01T10:42:57;10.27;;;6.77;;
38615;SDS011;24370;51.986;4.666;2023-03-01T10:48:04;10.43;;;7.23;;
38615;SDS011;24370;51.986;4.666;2023-03-01T10:50:29;12.00;;;6.87;;
38615;SDS011;24370;51.986;4.666;2023-03-01T10:52:57;10.13;;;6.30;;
38615;SDS011;24370;51.986;4.666;2023-03-01T10:55:35;11.57;;;6.80;;
38615;SDS011;24370;51.986;4.666;2023-03-01T11:00:46;9.87;;;5.93;;
38615;SDS011;24370;51.986;4.666;2023-03-01T11:03:17;12.03;;;6.50;;
38615;SDS011;24370;51.986;4.666;2023-03-01T11:05:56;11.13;;;6.13;;
38615;SDS011;24370;51.986;4.666;2023-03-01T11:11:32;10.23;;;5.07;;
38615;SDS011;24370;51.986;4.666;2023-03-01T11:16:31;10.67;;;5.73;;
38615;SDS011;24370;51.986;4.666;2023-03-01T11:19:13;9.10;;;5.97;;
38615;SDS011;24370;51.986;4.666;2023-03-01T11:21:47;10.03;;;6.30;;
38615;SDS011;24370;51.986;4.666;2023-03-01T11:24:29;8.43;;;5.97;;
38615;SDS011;24370;51.986;4.666;2023-03-01T11:26:59;10.27;;;5.77;;
38615;SDS011;24370;51.986;4.666;2023-03-01T11:29:36;8.47;;;5.50;;
38615;SDS011;24370;51.986;4.666;2023-03-01T11:32:06;12.47;;;6.00;;
38615;SDS011;24370;51.986;4.666;2023-03-01T11:43:20;10.13;;;5.20;;
38615;SDS011;24370;51.986;4.666;2023-03-01T11:46:08;9.03;;;5.50;;
38615;SDS011;24370;51.986;4.666;2023-03-01T11:56:36;12.00;;;4.97;;
38615;SDS011;24370;51.986;4.666;2023-03-01T12:15:51;7.27;;;5.33;;
38615;SDS011;24370;51.986;4.666;2023-03-01T12:26:33;6.83;;;4.90;;
38615;SDS011;24370;51.986;4.666;2023-03-01T12:45:56;6.10;;;4.18;;
38615;SDS011;24370;51.986;4.666;2023-03-01T12:48:46;10.57;;;5.03;;
38615;SDS011;24370;51.986;4.666;2023-03-01T12:51:23;11.70;;;4.83;;
38615;SDS011;24370;51.986;4.666;2023-03-01T12:53:51;6.53;;;4.17;;
38615;SDS011;24370;51.986;4.666;2023-03-01T12:56:29;13.73;;;4.53;;
38615;SDS011;24370;51.986;4.666;2023-03-01T13:02:23;5.90;;;4.07;;
38615;SDS011;24370;51.986;4.666;2023-03-01T13:07:38;7.77;;;4.60;;
38615;SDS011;24370;51.986;4.666;2023-03-01T13:15:36;7.67;;;5.07;;
38615;SDS011;24370;51.986;4.666;2023-03-01T13:26:19;5.57;;;4.20;;
38615;SDS011;24370;51.986;4.666;2023-03-01T13:31:07;9.37;;;4.53;;
38615;SDS011;24370;51.986;4.666;2023-03-01T13:33:47;9.17;;;5.50;;
38615;SDS011;24370;51.986;4.666;2023-03-01T13:53:02;9.83;;;4.80;;
38615;SDS011;24370;51.986;4.666;2023-03-01T13:55:10;7.87;;;4.57;;
38615;SDS011;24370;51.986;4.666;2023-03-01T13:57:39;7.30;;;4.90;;
38615;SDS011;24370;51.986;4.666;2023-03-01T14:00:07;9.57;;;4.60;;
38615;SDS011;24370;51.986;4.666;2023-03-01T14:03:03;6.77;;;4.37;;
38615;SDS011;24370;51.986;4.666;2023-03-01T14:05:44;9.65;;;5.38;;
38615;SDS011;24370;51.986;4.666;2023-03-01T14:08:34;7.43;;;4.77;;
38615;SDS011;24370;51.986;4.666;2023-03-01T14:11:13;8.88;;;5.13;;
38615;SDS011;24370;51.986;4.666;2023-03-01T14:19:47;7.67;;;5.03;;
38615;SDS011;24370;51.986;4.666;2023-03-01T14:22:23;11.82;;;5.00;;
38615;SDS011;24370;51.986;4.666;2023-03-01T14:27:20;8.63;;;4.00;;
38615;SDS011;24370;51.986;4.666;2023-03-01T14:29:56;5.63;;;3.70;;
38615;SDS011;24370;51.986;4.666;2023-03-01T14:32:25;7.53;;;4.20;;
38615;SDS011;24370;51.986;4.666;2023-03-01T14:34:53;11.13;;;4.30;;
38615;SDS011;24370;51.986;4.666;2023-03-01T14:39:45;9.33;;;4.30;;
38615;SDS011;24370;51.986;4.666;2023-03-01T14:42:11;6.30;;;4.17;;
38615;SDS011;24370;51.986;4.666;2023-03-01T14:44:40;6.93;;;4.70;;
38615;SDS011;24370;51.986;4.666;2023-03-01T14:47:27;11.23;;;5.47;;
38615;SDS011;24370;51.986;4.666;2023-03-01T14:50:03;8.70;;;4.70;;
38615;SDS011;24370;51.986;4.666;2023-03-01T14:52:34;8.60;;;4.50;;
38615;SDS011;24370;51.986;4.666;2023-03-01T14:55:03;8.57;;;4.67;;
38615;SDS011;24370;51.986;4.666;2023-03-01T14:57:32;6.87;;;4.37;;
38615;SDS011;24370;51.986;4.666;2023-03-01T14:59:58;15.23;;;5.17;;
38615;SDS011;24370;51.986;4.666;2023-03-01T15:02:28;9.20;;;4.63;;
38615;SDS011;24370;51.986;4.666;2023-03-01T15:04:56;8.27;;;4.27;;
38615;SDS011;24370;51.986;4.666;2023-03-01T15:07:33;8.17;;;3.97;;
38615;SDS011;24370;51.986;4.666;2023-03-01T15:10:01;8.70;;;4.10;;
38615;SDS011;24370;51.986;4.666;2023-03-01T15:14:53;7.17;;;4.23;;
38615;SDS011;24370;51.986;4.666;2023-03-01T15:19:45;11.03;;;4.57;;
38615;SDS011;24370;51.986;4.666;2023-03-01T15:22:14;7.33;;;4.47;;
38615;SDS011;24370;51.986;4.666;2023-03-01T15:24:41;7.50;;;4.03;;
38615;SDS011;24370;51.986;4.666;2023-03-01T15:27:14;7.13;;;4.37;;
38615;SDS011;24370;51.986;4.666;2023-03-01T15:29:52;7.43;;;4.40;;
38615;SDS011;24370;51.986;4.666;2023-03-01T15:32:32;5.97;;;4.07;;
38615;SDS011;24370;51.986;4.666;2023-03-01T15:37:59;7.63;;;3.90;;
38615;SDS011;24370;51.986;4.666;2023-03-01T15:40:29;7.20;;;4.10;;
38615;SDS011;24370;51.986;4.666;2023-03-01T15:45:28;5.23;;;3.90;;
38615;SDS011;24370;51.986;4.666;2023-03-01T15:50:27;8.30;;;4.17;;
38615;SDS011;24370;51.986;4.666;2023-03-01T15:52:54;6.43;;;3.63;;
38615;SDS011;24370;51.986;4.666;2023-03-01T15:55:24;6.97;;;3.77;;
38615;SDS011;24370;51.986;4.666;2023-03-01T15:58:15;7.95;;;3.92;;
38615;SDS011;24370;51.986;4.666;2023-03-01T16:00:43;11.97;;;4.73;;
38615;SDS011;24370;51.986;4.666;2023-03-01T16:03:12;8.33;;;4.70;;
38615;SDS011;24370;51.986;4.666;2023-03-01T16:05:38;6.23;;;4.20;;
38615;SDS011;24370;51.986;4.666;2023-03-01T16:08:04;9.40;;;4.67;;
38615;SDS011;24370;51.986;4.666;2023-03-01T16:10:31;9.40;;;4.87;;
38615;SDS011;24370;51.986;4.666;2023-03-01T16:12:57;8.80;;;4.53;;
38615;SDS011;24370;51.986;4.666;2023-03-01T16:15:30;7.30;;;4.50;;
38615;SDS011;24370;51.986;4.666;2023-03-01T16:17:58;9.13;;;4.17;;
38615;SDS011;24370;51.986;4.666;2023-03-01T16:20:23;9.37;;;4.20;;
38615;SDS011;24370;51.986;4.666;2023-03-01T16:22:50;7.83;;;4.23;;
38615;SDS011;24370;51.986;4.666;2023-03-01T16:25:16;6.67;;;4.60;;
38615;SDS011;24370;51.986;4.666;2023-03-01T16:27:44;12.27;;;4.53;;
38615;SDS011;24370;51.986;4.666;2023-03-01T16:30:11;10.40;;;4.50;;
38615;SDS011;24370;51.986;4.666;2023-03-01T16:32:41;7.40;;;4.03;;
38615;SDS011;24370;51.986;4.666;2023-03-01T16:35:08;6.70;;;3.83;;
38615;SDS011;24370;51.986;4.666;2023-03-01T16:37:35;8.00;;;4.23;;
38615;SDS011;24370;51.986;4.666;2023-03-01T16:40:02;10.73;;;5.37;;
38615;SDS011;24370;51.986;4.666;2023-03-01T16:42:33;8.43;;;4.97;;
38615;SDS011;24370;51.986;4.666;2023-03-01T16:45:00;11.43;;;4.63;;
38615;SDS011;24370;51.986;4.666;2023-03-01T16:47:26;8.30;;;4.67;;
38615;SDS011;24370;51.986;4.666;2023-03-01T16:49:52;10.17;;;5.40;;
38615;SDS011;24370;51.986;4.666;2023-03-01T16:52:18;9.23;;;5.10;;
38615;SDS011;24370;51.986;4.666;2023-03-01T16:54:44;9.13;;;5.00;;
38615;SDS011;24370;51.986;4.666;2023-03-01T16:57:10;10.93;;;5.13;;
38615;SDS011;24370;51.986;4.666;2023-03-01T16:59:36;7.73;;;4.80;;
38615;SDS011;24370;51.986;4.666;2023-03-01T17:02:02;10.07;;;5.33;;
38615;SDS011;24370;51.986;4.666;2023-03-01T17:04:28;14.13;;;5.40;;
38615;SDS011;24370;51.986;4.666;2023-03-01T17:06:53;9.07;;;4.77;;
38615;SDS011;24370;51.986;4.666;2023-03-01T17:09:18;8.17;;;4.90;;
38615;SDS011;24370;51.986;4.666;2023-03-01T17:11:46;8.43;;;5.20;;
38615;SDS011;24370;51.986;4.666;2023-03-01T17:14:12;9.97;;;5.63;;